Hauptseite
METAR-TAF:

METAR-TAF

Flughäfen :

Umiujaq, Québec, Kanada

Breite: 56-32N, Länge: 076-31W, Höhe: 71 m

Beobachtung

Neuester Wetterbericht von vor 41 Minuten, um 18:00 UTC
Wind 7 kt aus Ost
Temperatur -7°C
Luftfeuchtigkeit 86%
Luftdruck 1021 hPa
Sichtweite: 22.5 km
Leicht bewölkt in der Höhe von 2500 ft
Geschlossene Wolkendecke in der Höhe von 3900 ft
Schneeschauer

METAR: CYMU 121800Z 08007KT 14SM -SHSN FEW025 OVC039 M07/M09 A3015 RMK SC2SC6 SLP218

Zeit: 13:41 (18:41 UTC)


TAF: fehlend

Wetterbeobachtungen und Prognosen von mehr als 4000 Flughäfen (METAR und TAF Bericht).

Die verfügbaren Stationen werden durch gelbe und rote Markierungen auf der Karte dargestellt.

Führen Sie die Maus auf sie, um den Namen der Station zu sehen.

Darauf klicken, um die Beobachtung von Wetterbeobachtungen und Prognosen zu sehen.

Um die Karte zu ändern : klicken Sie auf den grünen Tasten mit einem schwarzen Kreuz Zum Vergrößern, auf den grünen Button mit einem Gedankenstrich zu verkleinern, oder auf die grünen Pfeile für benachbarte Karten.


METAR-TAF: